MTS Valour — MPVV8 — position and weather

sailwx.info

Track history (hours):
 
Tides and Currents Weather Stations Pressure Air Temp Water Temp Dewpoint Dewpoint Depression Visibility Wind Speed Wind Dir Waves Ship Positions

MTS Valour

Last reported at 2017-Sep-19 06:43 UTC. Time now 2017-Sep-20 20:24 UTC.
Position N 54°07' E 008°52'.

Length 24 m; draft 2.3 m.

Type: Tug. MMSI: 235040596.

Date/timePositionNaut miles runAvg speedWind from/ knotsBaromVisibWave heightAir tempDewpointWater temp
2017-Sep-19 06:43N 54°07' E 008°52'136 4.9
2017-Sep-18 02:56N 53°30' E 005°10'3 7.6
2017-Sep-18 02:29N 53°29' E 005°05'4 7.3
2017-Sep-18 02:00N 53°28' E 004°59'63 5.1
2017-Sep-17 13:45N 52°33' E 004°08'1 5.4
2017-Sep-17 13:29N 52°32' E 004°10'2 5.1
2017-Sep-17 13:00N 52°31' E 004°13'2 4.6
2017-Sep-17 12:30N 52°31' E 004°17'2 4.7
2017-Sep-17 12:00N 52°30' E 004°21'2 4.7
2017-Sep-17 11:30N 52°30' E 004°25'2 4.8
2017-Sep-17 11:00N 52°29' E 004°28'2 4.6
2017-Sep-17 10:30N 52°28' E 004°32'2 4.8
2017-Sep-17 10:00N 52°28' E 004°36'0 0.9
2017-Sep-17 09:30N 52°28' E 004°37'2 4.0
2017-Sep-17 09:00N 52°28' E 004°40'0 0.3
2017-Sep-17 08:31N 52°28' E 004°40'0 0.0
2017-Sep-17 08:00N 52°28' E 004°40'0 0.0
2017-Sep-17 07:30N 52°28' E 004°40'0 0.0
2017-Sep-17 07:00N 52°28' E 004°40'0 0.0
2017-Sep-17 06:30N 52°28' E 004°40'0 0.0
2017-Sep-17 06:01N 52°28' E 004°40'0 0.0
2017-Sep-17 05:30N 52°28' E 004°40'0 0.0
2017-Sep-17 05:00N 52°28' E 004°40'0 0.0
2017-Sep-17 04:31N 52°28' E 004°40'0 0.0
2017-Sep-17 04:00N 52°28' E 004°40'0 0.0
2017-Sep-17 03:31N 52°28' E 004°40'0 0.0
2017-Sep-17 03:01N 52°28' E 004°40'0 0.0
2017-Sep-17 02:30N 52°28' E 004°40'0 0.0
2017-Sep-17 02:01N 52°28' E 004°40'0 0.0
2017-Sep-17 01:30N 52°28' E 004°40'0 0.0
2017-Sep-17 01:00N 52°28' E 004°40'0 0.0
2017-Sep-17 00:30N 52°28' E 004°40'0 0.0
2017-Sep-17 00:00N 52°28' E 004°40'0 0.0
2017-Sep-16 23:31N 52°28' E 004°40'0 0.0
2017-Sep-16 23:00N 52°28' E 004°40'0 0.1
2017-Sep-16 22:30N 52°28' E 004°40'0 0.0
2017-Sep-16 22:00N 52°28' E 004°40'0 0.0
2017-Sep-16 21:30N 52°28' E 004°40'0 0.0
2017-Sep-16 21:01N 52°28' E 004°40'0 0.0
2017-Sep-16 20:30N 52°28' E 004°40'0 0.0
2017-Sep-16 20:01N 52°28' E 004°40'0 0.0
2017-Sep-16 19:30N 52°28' E 004°40'2 4.1
2017-Sep-16 19:01N 52°28' E 004°37'2 3.4
2017-Sep-16 18:30N 52°28' E 004°34'5 9.2
2017-Sep-16 18:00N 52°28' E 004°26'5 9.2
2017-Sep-16 17:30N 52°28' E 004°19'5 9.1
2017-Sep-16 17:00N 52°29' E 004°12'88 9.6
2017-Sep-16 07:52N 51°35' E 002°19'3 9.5
2017-Sep-16 07:30N 51°32' E 002°15'6 9.2
2017-Sep-16 06:53N 51°28' E 002°09'3 8.9
2017-Sep-16 06:30N 51°26' E 002°05'4 8.4
2017-Sep-16 06:00N 51°23' E 001°60'4 8.3
2017-Sep-16 05:30N 51°24' E 001°53'4 7.4
2017-Sep-16 05:00N 51°24' E 001°48'4 7.6
2017-Sep-16 04:30N 51°22' E 001°42'4 7.6
2017-Sep-16 04:00N 51°21' E 001°36'4 7.8
2017-Sep-16 03:30N 51°20' E 001°30'3 6.8
2017-Sep-16 03:00N 51°20' E 001°25'0 0.0
2017-Sep-16 02:30N 51°20' E 001°25'0 0.0
2017-Sep-16 02:00N 51°20' E 001°25'0 0.0
2017-Sep-16 01:30N 51°20' E 001°25'0 0.0
2017-Sep-16 01:00N 51°20' E 001°25'0 0.0
2017-Sep-16 00:30N 51°20' E 001°25'0 0.0
2017-Sep-16 00:00N 51°20' E 001°25'0 0.0
2017-Sep-15 23:30N 51°20' E 001°25'0 0.0
2017-Sep-15 23:00N 51°20' E 001°25'0 0.0
2017-Sep-15 22:30N 51°20' E 001°25'0 0.0
2017-Sep-15 22:00N 51°20' E 001°25'0 0.0
2017-Sep-15 21:30N 51°20' E 001°25'0 0.0
2017-Sep-15 21:00N 51°20' E 001°25'0 0.0
2017-Sep-15 20:30N 51°20' E 001°25'0 0.0
2017-Sep-15 20:01N 51°20' E 001°25'0 0.0
2017-Sep-15 19:30N 51°20' E 001°25'0 0.0
2017-Sep-15 19:00N 51°20' E 001°25'0 0.0
2017-Sep-15 18:30N 51°20' E 001°25'0 0.0
2017-Sep-15 18:01N 51°20' E 001°25'0 0.0
2017-Sep-15 17:30N 51°20' E 001°25'0 0.1
2017-Sep-15 17:00N 51°20' E 001°25'0 0.6
2017-Sep-15 16:30N 51°20' E 001°25'0 0.3
2017-Sep-15 16:00N 51°20' E 001°25'0 0.0
2017-Sep-15 15:30N 51°20' E 001°25'0 0.0
2017-Sep-15 15:00N 51°20' E 001°25'0 0.0
2017-Sep-15 14:30N 51°20' E 001°25'0 0.0
2017-Sep-15 14:00N 51°20' E 001°25'0 0.0
2017-Sep-15 13:30N 51°20' E 001°25'0 0.0
2017-Sep-15 13:00N 51°20' E 001°25'0 0.0
2017-Sep-15 12:30N 51°20' E 001°25'0 0.0
2017-Sep-15 12:00N 51°20' E 001°25'0 0.0
2017-Sep-15 11:31N 51°20' E 001°25'0 0.0
2017-Sep-15 11:00N 51°20' E 001°25'0 0.0
2017-Sep-15 10:30N 51°20' E 001°25'2 3.4
2017-Sep-15 10:01N 51°20' E 001°28'2 4.1
2017-Sep-15 09:30N 51°20' E 001°25'0 0.0
2017-Sep-15 09:00N 51°20' E 001°25'0 0.0
2017-Sep-15 08:30N 51°20' E 001°25'0 0.8
2017-Sep-15 08:00N 51°20' E 001°25'0 0.0
2017-Sep-15 07:30N 51°20' E 001°25'0 0.0
2017-Sep-15 07:00N 51°20' E 001°25'0 0.0
2017-Sep-15 06:30N 51°20' E 001°25'0 0.0
2017-Sep-15 06:00N 51°20' E 001°25'0 0.0
2017-Sep-15 05:30N 51°20' E 001°25'0 0.0
2017-Sep-15 05:00N 51°20' E 001°25'0 0.0
2017-Sep-15 04:30N 51°20' E 001°25'0 0.0
2017-Sep-15 04:00N 51°20' E 001°25'0 0.0
2017-Sep-15 03:30N 51°20' E 001°25'0 0.0
2017-Sep-15 03:00N 51°20' E 001°25'0 0.0
2017-Sep-15 02:30N 51°20' E 001°25'0 0.0
2017-Sep-15 02:00N 51°20' E 001°25'0 0.0
2017-Sep-15 01:30N 51°20' E 001°25'0 0.0
2017-Sep-15 01:00N 51°20' E 001°25'0 0.0
2017-Sep-15 00:30N 51°20' E 001°25'0 0.0
2017-Sep-15 00:00N 51°20' E 001°25'0 0.0
2017-Sep-14 23:30N 51°20' E 001°25'0 0.0
2017-Sep-14 23:00N 51°20' E 001°25'0 0.0
2017-Sep-14 22:30N 51°20' E 001°25'0 0.0
2017-Sep-14 22:00N 51°20' E 001°25'0 0.0
2017-Sep-14 21:30N 51°20' E 001°25'0 0.0
2017-Sep-14 21:00N 51°20' E 001°25'0 0.0
2017-Sep-14 20:30N 51°20' E 001°25'0 0.0
2017-Sep-14 20:00N 51°20' E 001°25'0 0.0
2017-Sep-14 19:30N 51°20' E 001°25'0 0.0
2017-Sep-14 19:00N 51°20' E 001°25'0 0.0
2017-Sep-14 18:30N 51°20' E 001°25'0 0.0
2017-Sep-14 18:00N 51°20' E 001°25'0 0.0
2017-Sep-14 17:30N 51°20' E 001°25'0 0.0
2017-Sep-14 17:00N 51°20' E 001°25'0 0.0
2017-Sep-14 16:30N 51°20' E 001°25'0 0.0
2017-Sep-14 16:00N 51°20' E 001°25'0 0.0
2017-Sep-14 15:30N 51°20' E 001°25'0 0.0
2017-Sep-14 15:00N 51°20' E 001°25'0 0.0
2017-Sep-14 14:30N 51°20' E 001°25'0 0.0
2017-Sep-14 14:00N 51°20' E 001°25'0 0.0
2017-Sep-14 13:30N 51°20' E 001°25'0 0.0
2017-Sep-14 13:00N 51°20' E 001°25'0 0.0
2017-Sep-14 12:30N 51°20' E 001°25'0 0.0
2017-Sep-14 12:00N 51°20' E 001°25'0 0.0
2017-Sep-14 11:30N 51°20' E 001°25'0 0.0
2017-Sep-14 11:00N 51°20' E 001°25'0 0.0
2017-Sep-14 10:30N 51°20' E 001°25'0 0.0
2017-Sep-14 10:00N 51°20' E 001°25'0 0.0
2017-Sep-14 09:30N 51°20' E 001°25'0 0.0
2017-Sep-14 09:00N 51°20' E 001°25'0 0.0
2017-Sep-14 08:30N 51°20' E 001°25'0 0.0
2017-Sep-14 08:00N 51°20' E 001°25'0 0.0
2017-Sep-14 07:30N 51°20' E 001°25'0 0.0
2017-Sep-14 07:00N 51°20' E 001°25'0 0.0
2017-Sep-14 06:30N 51°20' E 001°25'0 0.0
2017-Sep-14 06:00N 51°20' E 001°25'0 0.0
2017-Sep-14 05:30N 51°20' E 001°25'0 0.0
2017-Sep-14 05:00N 51°20' E 001°25'0 0.0
2017-Sep-14 04:30N 51°20' E 001°25'0 0.0
2017-Sep-14 04:00N 51°20' E 001°25'0 0.0
2017-Sep-14 03:30N 51°20' E 001°25'0 0.0
2017-Sep-14 03:00N 51°20' E 001°25'0 0.0
2017-Sep-14 02:30N 51°20' E 001°25'0 0.0
2017-Sep-14 02:00N 51°20' E 001°25'0 0.0
2017-Sep-14 01:30N 51°20' E 001°25'0 0.0
2017-Sep-14 01:00N 51°20' E 001°25'0 0.0
2017-Sep-14 00:30N 51°20' E 001°25'0 0.0
2017-Sep-14 00:00N 51°20' E 001°25'0 0.0
2017-Sep-13 23:30N 51°20' E 001°25'0 0.0
2017-Sep-13 23:00N 51°20' E 001°25'0 0.0
2017-Sep-13 22:30N 51°20' E 001°25'0 0.0
2017-Sep-13 22:00N 51°20' E 001°25'0 0.0
2017-Sep-13 21:30N 51°20' E 001°25'0 0.0
2017-Sep-13 21:00N 51°20' E 001°25'0 0.0
2017-Sep-13 20:30N 51°20' E 001°25'0 0.0
2017-Sep-13 20:00N 51°20' E 001°25'0 0.0
2017-Sep-13 19:30N 51°20' E 001°25'0 0.0
2017-Sep-13 19:00N 51°20' E 001°25'0 0.0
2017-Sep-13 18:30N 51°20' E 001°25'0 0.0
2017-Sep-13 18:00N 51°20' E 001°25'0 0.0
2017-Sep-13 17:30N 51°20' E 001°25'0 0.0
2017-Sep-13 17:00N 51°20' E 001°25'0 0.0
2017-Sep-13 16:30N 51°20' E 001°25'0 0.0
2017-Sep-13 16:00N 51°20' E 001°25'0 0.0
2017-Sep-13 15:30N 51°20' E 001°25'0 0.0
2017-Sep-13 15:00N 51°20' E 001°25'0 0.0
2017-Sep-13 14:30N 51°20' E 001°25'0 0.0
2017-Sep-13 14:00N 51°20' E 001°25'0 0.0
2017-Sep-13 13:30N 51°20' E 001°25'0 0.0
2017-Sep-13 13:00N 51°20' E 001°25'0 0.0
2017-Sep-13 12:30N 51°20' E 001°25'0 0.0
2017-Sep-13 12:00N 51°20' E 001°25'0 0.0
2017-Sep-13 11:30N 51°20' E 001°25'0 0.0
2017-Sep-13 11:00N 51°20' E 001°25'0 0.0
2017-Sep-13 10:30N 51°20' E 001°25'0 0.0
2017-Sep-13 10:00N 51°20' E 001°25'0 0.0
2017-Sep-13 09:30N 51°20' E 001°25'0 0.0
2017-Sep-13 09:00N 51°20' E 001°25'0 0.0
2017-Sep-13 08:30N 51°20' E 001°25'0 0.0
2017-Sep-13 08:00N 51°20' E 001°25'0 0.0
2017-Sep-13 07:30N 51°20' E 001°25'0 0.0
2017-Sep-13 07:00N 51°20' E 001°25'0 0.0
2017-Sep-13 06:30N 51°20' E 001°25'0 0.0
2017-Sep-13 06:00N 51°20' E 001°25'0 0.0
2017-Sep-13 05:30N 51°20' E 001°25'0 0.0
2017-Sep-13 05:00N 51°20' E 001°25'0 0.0
2017-Sep-13 04:30N 51°20' E 001°25'0 0.0
2017-Sep-13 04:00N 51°20' E 001°25'0 0.0
2017-Sep-13 03:30N 51°20' E 001°25'0 0.0
2017-Sep-13 03:00N 51°20' E 001°25'0 0.0
2017-Sep-13 02:30N 51°20' E 001°25'0 0.0
2017-Sep-13 02:00N 51°20' E 001°25'0 0.0
2017-Sep-13 01:30N 51°20' E 001°25'0 0.0
2017-Sep-13 01:00N 51°20' E 001°25'0 0.0
2017-Sep-13 00:30N 51°20' E 001°25'0 0.0
2017-Sep-13 00:00N 51°20' E 001°25'0 0.0
2017-Sep-12 23:30N 51°20' E 001°25'0 0.0
2017-Sep-12 23:00N 51°20' E 001°25'0 0.0
2017-Sep-12 22:30N 51°20' E 001°25'0 0.0
2017-Sep-12 22:00N 51°20' E 001°25'0 0.0
2017-Sep-12 21:30N 51°20' E 001°25'0 0.0
2017-Sep-12 21:00N 51°20' E 001°25'0 0.0
2017-Sep-12 20:30N 51°20' E 001°25'0 0.0
2017-Sep-12 20:00N 51°20' E 001°25'0 0.0
2017-Sep-12 19:30N 51°20' E 001°25'0 0.0
2017-Sep-12 19:00N 51°20' E 001°25'0 0.0
2017-Sep-12 18:30N 51°20' E 001°25'0 0.0
2017-Sep-12 18:00N 51°20' E 001°25'0 0.0
2017-Sep-12 17:30N 51°20' E 001°25'0 0.0
2017-Sep-12 17:00N 51°20' E 001°25'0 0.0
2017-Sep-12 16:30N 51°20' E 001°25'0 0.0
2017-Sep-12 16:00N 51°20' E 001°25'0 0.0
2017-Sep-12 15:30N 51°20' E 001°25'0 0.0
2017-Sep-12 15:00N 51°20' E 001°25'0 0.0
2017-Sep-12 14:30N 51°20' E 001°25'0 0.0
2017-Sep-12 14:00N 51°20' E 001°25'0 0.0
2017-Sep-12 13:30N 51°20' E 001°25'0 0.0
2017-Sep-12 13:00N 51°20' E 001°25'0 0.0
2017-Sep-12 12:30N 51°20' E 001°25'0 0.0
2017-Sep-12 12:00N 51°20' E 001°25'0 0.0
2017-Sep-12 11:30N 51°20' E 001°25'0 0.0
2017-Sep-12 11:00N 51°20' E 001°25'0 0.0
2017-Sep-12 10:30N 51°20' E 001°25'0 0.0
2017-Sep-12 10:00N 51°20' E 001°25'0 0.0
2017-Sep-12 09:30N 51°20' E 001°25'0 0.8
2017-Sep-12 09:00N 51°20' E 001°25'0 0.0
2017-Sep-12 08:30N 51°20' E 001°25'0 0.1
2017-Sep-12 08:01N 51°20' E 001°25'0 0.1
2017-Sep-12 07:30N 51°20' E 001°25'0 0.0
2017-Sep-12 07:00N 51°20' E 001°25'0 0.0
2017-Sep-12 06:30N 51°20' E 001°25'0 0.0
2017-Sep-12 06:00N 51°20' E 001°25'0 0.0
2017-Sep-12 05:30N 51°20' E 001°25'0 0.0
2017-Sep-12 05:00N 51°20' E 001°25'0 0.0
2017-Sep-12 04:30N 51°20' E 001°25'0 0.0
2017-Sep-12 04:00N 51°20' E 001°25'0 0.0
2017-Sep-12 03:30N 51°20' E 001°25'0 0.0
2017-Sep-12 03:00N 51°20' E 001°25'0 0.0
2017-Sep-12 02:30N 51°20' E 001°25'0 0.0
2017-Sep-12 02:00N 51°20' E 001°25'0 0.0
2017-Sep-12 01:30N 51°20' E 001°25'0 0.0
2017-Sep-12 01:00N 51°20' E 001°25'0 0.6
2017-Sep-12 00:30N 51°20' E 001°25'1 2.5
2017-Sep-12 00:00N 51°19' E 001°27'1 2.6
2017-Sep-11 23:30N 51°19' E 001°25'1 1.3
2017-Sep-11 23:00N 51°20' E 001°25'0 0.0
2017-Sep-11 22:30N 51°20' E 001°25'0 0.0
2017-Sep-11 22:00N 51°20' E 001°25'0 0.0
2017-Sep-11 21:30N 51°20' E 001°25'0 0.0
2017-Sep-11 21:00N 51°20' E 001°25'0 0.0
2017-Sep-11 20:30N 51°20' E 001°25'0 0.0
2017-Sep-11 20:00N 51°20' E 001°25'0 0.0
2017-Sep-11 19:30N 51°20' E 001°25'0 0.0
2017-Sep-11 19:00N 51°20' E 001°25'0 0.0
2017-Sep-11 18:30N 51°20' E 001°25'0 0.0
2017-Sep-11 18:00N 51°20' E 001°25'0 0.0
2017-Sep-11 17:30N 51°20' E 001°25'0 0.0
2017-Sep-11 17:00N 51°20' E 001°25'0 0.0
2017-Sep-11 16:30N 51°20' E 001°25'0 0.0
2017-Sep-11 16:00N 51°20' E 001°25'0 0.0
2017-Sep-11 15:30N 51°20' E 001°25'0 0.0
2017-Sep-11 15:00N 51°20' E 001°25'0 0.0
2017-Sep-11 14:30N 51°20' E 001°25'0 0.0
2017-Sep-11 14:00N 51°20' E 001°25'0 0.0
2017-Sep-11 13:30N 51°20' E 001°25'0 0.0
2017-Sep-11 13:00N 51°20' E 001°25'0 0.0
2017-Sep-11 12:30N 51°20' E 001°25'0 0.0
2017-Sep-11 12:00N 51°20' E 001°25'0 0.0
2017-Sep-11 11:30N 51°20' E 001°25'0 0.0
2017-Sep-11 11:00N 51°20' E 001°25'0 0.0
2017-Sep-11 10:30N 51°20' E 001°25'0 0.0
2017-Sep-11 10:00N 51°20' E 001°25'0 0.0
2017-Sep-11 09:30N 51°20' E 001°25'0 0.0
2017-Sep-11 09:00N 51°20' E 001°25'0 0.0
2017-Sep-11 08:31N 51°20' E 001°25'0 0.0
2017-Sep-11 08:00N 51°20' E 001°25'0 0.0
2017-Sep-11 07:30N 51°20' E 001°25'0 0.0
2017-Sep-11 07:00N 51°20' E 001°25'0 0.0
2017-Sep-11 06:30N 51°20' E 001°25'0 0.0
2017-Sep-11 06:00N 51°20' E 001°25'0 0.0
2017-Sep-11 05:30N 51°20' E 001°25'0 0.0
2017-Sep-11 05:00N 51°20' E 001°25'0 0.0
2017-Sep-11 04:30N 51°20' E 001°25'0 0.0
2017-Sep-11 04:00N 51°20' E 001°25'0 0.0
2017-Sep-11 03:30N 51°20' E 001°25'0 0.0
2017-Sep-11 03:00N 51°20' E 001°25'0 0.0
2017-Sep-11 02:30N 51°20' E 001°25'0 0.0
2017-Sep-11 02:00N 51°20' E 001°25'0 0.0
2017-Sep-11 01:31N 51°20' E 001°25'0 0.0
2017-Sep-11 01:00N 51°20' E 001°25'0 0.0
2017-Sep-11 00:30N 51°20' E 001°25'0 0.0
2017-Sep-11 00:00N 51°20' E 001°25'0 0.0
2017-Sep-10 23:30N 51°20' E 001°25'0 0.0
2017-Sep-10 23:00N 51°20' E 001°25'0 0.0
2017-Sep-10 22:30N 51°20' E 001°25'0 0.0
2017-Sep-10 22:00N 51°20' E 001°25'0 0.0
2017-Sep-10 21:30N 51°20' E 001°25'0 0.0
2017-Sep-10 21:00N 51°20' E 001°25'0 0.0
2017-Sep-10 20:30N 51°20' E 001°25'0 0.0
2017-Sep-10 20:00N 51°20' E 001°25'0 0.0
2017-Sep-10 19:30N 51°20' E 001°25'0 0.0
2017-Sep-10 19:00N 51°20' E 001°25'0 0.0
2017-Sep-10 18:30N 51°20' E 001°25'0 0.0
2017-Sep-10 18:00N 51°20' E 001°25'0 0.0
2017-Sep-10 17:30N 51°20' E 001°25'0 0.0
2017-Sep-10 17:00N 51°20' E 001°25'0 0.0
2017-Sep-10 16:30N 51°20' E 001°25'0 0.0
2017-Sep-10 16:00N 51°20' E 001°25'0 0.0
2017-Sep-10 15:30N 51°20' E 001°25'0 0.0
2017-Sep-10 15:00N 51°20' E 001°25'0 0.0
2017-Sep-10 14:00N 51°20' E 001°25'0 0.0
2017-Sep-10 13:30N 51°20' E 001°25'0 0.0
2017-Sep-10 13:00N 51°20' E 001°25'0 0.0
2017-Sep-10 12:30N 51°20' E 001°25'0 0.0
2017-Sep-10 12:00N 51°20' E 001°25'0 0.0
2017-Sep-10 11:30N 51°20' E 001°25'0 0.0
2017-Sep-10 11:00N 51°20' E 001°25'0 0.0
2017-Sep-10 10:30N 51°20' E 001°25'0 0.0
2017-Sep-10 10:00N 51°20' E 001°25'0 0.0
2017-Sep-10 09:30N 51°20' E 001°25'0 0.0
2017-Sep-10 09:00N 51°20' E 001°25'0 0.0
2017-Sep-10 08:31N 51°20' E 001°25'0 0.0
2017-Sep-10 08:00N 51°20' E 001°25'0 0.0
2017-Sep-10 07:30N 51°20' E 001°25'0 0.0
2017-Sep-10 07:00N 51°20' E 001°25'0 0.0
2017-Sep-10 06:31N 51°20' E 001°25'0 0.0
2017-Sep-10 06:00N 51°20' E 001°25'0 0.0
2017-Sep-10 05:30N 51°20' E 001°25'0 0.0
2017-Sep-10 05:00N 51°20' E 001°25'0 0.0
2017-Sep-10 04:30N 51°20' E 001°25'0 0.0
2017-Sep-10 04:00N 51°20' E 001°25'0 0.0
2017-Sep-10 03:30N 51°20' E 001°25'0 0.0
2017-Sep-10 03:00N 51°20' E 001°25'0 0.0
2017-Sep-10 02:30N 51°20' E 001°25'0 0.0
2017-Sep-10 02:00N 51°20' E 001°25'0 0.0
2017-Sep-10 01:30N 51°20' E 001°25'0 0.0
2017-Sep-10 01:01N 51°20' E 001°25'0 0.0
2017-Sep-10 00:30N 51°20' E 001°25'0 0.0
2017-Sep-10 00:00N 51°20' E 001°25'0 0.0
2017-Sep-09 23:30N 51°20' E 001°25'0 0.0
2017-Sep-09 23:00N 51°20' E 001°25'0 0.0
2017-Sep-09 22:30N 51°20' E 001°25'0 0.0
2017-Sep-09 22:00N 51°20' E 001°25'0 0.0
2017-Sep-09 21:31N 51°20' E 001°25'0 0.0
2017-Sep-09 21:00N 51°20' E 001°25'0 0.0
2017-Sep-09 20:30N 51°20' E 001°25'0 0.0
2017-Sep-09 20:00N 51°20' E 001°25'0 0.0
2017-Sep-09 19:30N 51°20' E 001°25'0 0.0
2017-Sep-09 19:00N 51°20' E 001°25'0 0.0
2017-Sep-09 18:30N 51°20' E 001°25'0 0.0
2017-Sep-09 18:00N 51°20' E 001°25'0 0.0
2017-Sep-09 17:30N 51°20' E 001°25'0 0.0
2017-Sep-09 17:00N 51°20' E 001°25'0 0.0
2017-Sep-09 16:30N 51°20' E 001°25'0 0.0
2017-Sep-09 16:00N 51°20' E 001°25'1 1.0
2017-Sep-09 15:30N 51°19' E 001°25'0 0.6
2017-Sep-09 15:00N 51°19' E 001°25'0 0.0
2017-Sep-09 14:30N 51°19' E 001°25'0 0.0
2017-Sep-09 14:00N 51°19' E 001°25'0 0.0
2017-Sep-09 13:30N 51°19' E 001°25'0 0.0
2017-Sep-09 13:00N 51°19' E 001°25'0 0.0
2017-Sep-09 12:30N 51°19' E 001°25'0 0.0
2017-Sep-09 12:00N 51°19' E 001°25'0 0.1
2017-Sep-09 11:30N 51°19' E 001°25'0 0.0
2017-Sep-09 11:00N 51°19' E 001°25'0 0.0
2017-Sep-09 10:31N 51°19' E 001°25'0 0.0
2017-Sep-09 10:00N 51°19' E 001°25'0 0.0
2017-Sep-09 09:30N 51°19' E 001°25'0 0.0
2017-Sep-09 09:01N 51°19' E 001°25'0 0.0
2017-Sep-09 08:31N 51°19' E 001°25'0 0.0
2017-Sep-09 08:00N 51°19' E 001°25'0 0.0
2017-Sep-09 07:30N 51°19' E 001°25'0 0.0
2017-Sep-09 07:00N 51°19' E 001°25'  
Track history (hours):
 
Tides and Currents Weather Stations Pressure Air Temp Water Temp Dewpoint Dewpoint Depression Visibility Wind Speed Wind Dir Waves Ship Positions

MTS Valour

Last reported at 2017-Sep-19 06:43 UTC. Time now 2017-Sep-20 20:24 UTC.
Position N 54°07' E 008°52'.

Length 24 m; draft 2.3 m.

Type: Tug. MMSI: 235040596.

Date/timePositionNaut miles runAvg speedWind from/ knotsBaromVisibWave heightAir tempDewpointWater temp
2017-Sep-19 06:43N 54°07' E 008°52'136 4.9
2017-Sep-18 02:56N 53°30' E 005°10'3 7.6
2017-Sep-18 02:29N 53°29' E 005°05'4 7.3
2017-Sep-18 02:00N 53°28' E 004°59'63 5.1
2017-Sep-17 13:45N 52°33' E 004°08'1 5.4
2017-Sep-17 13:29N 52°32' E 004°10'2 5.1
2017-Sep-17 13:00N 52°31' E 004°13'2 4.6
2017-Sep-17 12:30N 52°31' E 004°17'2 4.7
2017-Sep-17 12:00N 52°30' E 004°21'2 4.7
2017-Sep-17 11:30N 52°30' E 004°25'2 4.8
2017-Sep-17 11:00N 52°29' E 004°28'2 4.6
2017-Sep-17 10:30N 52°28' E 004°32'2 4.8
2017-Sep-17 10:00N 52°28' E 004°36'0 0.9
2017-Sep-17 09:30N 52°28' E 004°37'2 4.0
2017-Sep-17 09:00N 52°28' E 004°40'0 0.3
2017-Sep-17 08:31N 52°28' E 004°40'0 0.0
2017-Sep-17 08:00N 52°28' E 004°40'0 0.0
2017-Sep-17 07:30N 52°28' E 004°40'0 0.0
2017-Sep-17 07:00N 52°28' E 004°40'0 0.0
2017-Sep-17 06:30N 52°28' E 004°40'0 0.0
2017-Sep-17 06:01N 52°28' E 004°40'0 0.0
2017-Sep-17 05:30N 52°28' E 004°40'0 0.0
2017-Sep-17 05:00N 52°28' E 004°40'0 0.0
2017-Sep-17 04:31N 52°28' E 004°40'0 0.0
2017-Sep-17 04:00N 52°28' E 004°40'0 0.0
2017-Sep-17 03:31N 52°28' E 004°40'0 0.0
2017-Sep-17 03:01N 52°28' E 004°40'0 0.0
2017-Sep-17 02:30N 52°28' E 004°40'0 0.0
2017-Sep-17 02:01N 52°28' E 004°40'0 0.0
2017-Sep-17 01:30N 52°28' E 004°40'0 0.0
2017-Sep-17 01:00N 52°28' E 004°40'0 0.0
2017-Sep-17 00:30N 52°28' E 004°40'0 0.0
2017-Sep-17 00:00N 52°28' E 004°40'0 0.0
2017-Sep-16 23:31N 52°28' E 004°40'0 0.0
2017-Sep-16 23:00N 52°28' E 004°40'0 0.1
2017-Sep-16 22:30N 52°28' E 004°40'0 0.0
2017-Sep-16 22:00N 52°28' E 004°40'0 0.0
2017-Sep-16 21:30N 52°28' E 004°40'0 0.0
2017-Sep-16 21:01N 52°28' E 004°40'0 0.0
2017-Sep-16 20:30N 52°28' E 004°40'0 0.0
2017-Sep-16 20:01N 52°28' E 004°40'0 0.0
2017-Sep-16 19:30N 52°28' E 004°40'2 4.1
2017-Sep-16 19:01N 52°28' E 004°37'2 3.4
2017-Sep-16 18:30N 52°28' E 004°34'5 9.2
2017-Sep-16 18:00N 52°28' E 004°26'5 9.2
2017-Sep-16 17:30N 52°28' E 004°19'5 9.1
2017-Sep-16 17:00N 52°29' E 004°12'88 9.6
2017-Sep-16 07:52N 51°35' E 002°19'3 9.5
2017-Sep-16 07:30N 51°32' E 002°15'6 9.2
2017-Sep-16 06:53N 51°28' E 002°09'3 8.9
2017-Sep-16 06:30N 51°26' E 002°05'4 8.4
2017-Sep-16 06:00N 51°23' E 001°60'4 8.3
2017-Sep-16 05:30N 51°24' E 001°53'4 7.4
2017-Sep-16 05:00N 51°24' E 001°48'4 7.6
2017-Sep-16 04:30N 51°22' E 001°42'4 7.6
2017-Sep-16 04:00N 51°21' E 001°36'4 7.8
2017-Sep-16 03:30N 51°20' E 001°30'3 6.8
2017-Sep-16 03:00N 51°20' E 001°25'0 0.0
2017-Sep-16 02:30N 51°20' E 001°25'0 0.0
2017-Sep-16 02:00N 51°20' E 001°25'0 0.0
2017-Sep-16 01:30N 51°20' E 001°25'0 0.0
2017-Sep-16 01:00N 51°20' E 001°25'0 0.0
2017-Sep-16 00:30N 51°20' E 001°25'0 0.0
2017-Sep-16 00:00N 51°20' E 001°25'0 0.0
2017-Sep-15 23:30N 51°20' E 001°25'0 0.0
2017-Sep-15 23:00N 51°20' E 001°25'0 0.0
2017-Sep-15 22:30N 51°20' E 001°25'0 0.0
2017-Sep-15 22:00N 51°20' E 001°25'0 0.0
2017-Sep-15 21:30N 51°20' E 001°25'0 0.0
2017-Sep-15 21:00N 51°20' E 001°25'0 0.0
2017-Sep-15 20:30N 51°20' E 001°25'0 0.0
2017-Sep-15 20:01N 51°20' E 001°25'0 0.0
2017-Sep-15 19:30N 51°20' E 001°25'0 0.0
2017-Sep-15 19:00N 51°20' E 001°25'0 0.0
2017-Sep-15 18:30N 51°20' E 001°25'0 0.0
2017-Sep-15 18:01N 51°20' E 001°25'0 0.0
2017-Sep-15 17:30N 51°20' E 001°25'0 0.1
2017-Sep-15 17:00N 51°20' E 001°25'0 0.6
2017-Sep-15 16:30N 51°20' E 001°25'0 0.3
2017-Sep-15 16:00N 51°20' E 001°25'0 0.0
2017-Sep-15 15:30N 51°20' E 001°25'0 0.0
2017-Sep-15 15:00N 51°20' E 001°25'0 0.0
2017-Sep-15 14:30N 51°20' E 001°25'0 0.0
2017-Sep-15 14:00N 51°20' E 001°25'0 0.0
2017-Sep-15 13:30N 51°20' E 001°25'0 0.0
2017-Sep-15 13:00N 51°20' E 001°25'0 0.0
2017-Sep-15 12:30N 51°20' E 001°25'0 0.0
2017-Sep-15 12:00N 51°20' E 001°25'0 0.0
2017-Sep-15 11:31N 51°20' E 001°25'0 0.0
2017-Sep-15 11:00N 51°20' E 001°25'0 0.0
2017-Sep-15 10:30N 51°20' E 001°25'2 3.4
2017-Sep-15 10:01N 51°20' E 001°28'2 4.1
2017-Sep-15 09:30N 51°20' E 001°25'0 0.0
2017-Sep-15 09:00N 51°20' E 001°25'0 0.0
2017-Sep-15 08:30N 51°20' E 001°25'0 0.8
2017-Sep-15 08:00N 51°20' E 001°25'0 0.0
2017-Sep-15 07:30N 51°20' E 001°25'0 0.0
2017-Sep-15 07:00N 51°20' E 001°25'0 0.0
2017-Sep-15 06:30N 51°20' E 001°25'0 0.0
2017-Sep-15 06:00N 51°20' E 001°25'0 0.0
2017-Sep-15 05:30N 51°20' E 001°25'0 0.0
2017-Sep-15 05:00N 51°20' E 001°25'0 0.0
2017-Sep-15 04:30N 51°20' E 001°25'0 0.0
2017-Sep-15 04:00N 51°20' E 001°25'0 0.0
2017-Sep-15 03:30N 51°20' E 001°25'0 0.0
2017-Sep-15 03:00N 51°20' E 001°25'0 0.0
2017-Sep-15 02:30N 51°20' E 001°25'0 0.0
2017-Sep-15 02:00N 51°20' E 001°25'0 0.0
2017-Sep-15 01:30N 51°20' E 001°25'0 0.0
2017-Sep-15 01:00N 51°20' E 001°25'0 0.0
2017-Sep-15 00:30N 51°20' E 001°25'0 0.0
2017-Sep-15 00:00N 51°20' E 001°25'0 0.0
2017-Sep-14 23:30N 51°20' E 001°25'0 0.0
2017-Sep-14 23:00N 51°20' E 001°25'0 0.0
2017-Sep-14 22:30N 51°20' E 001°25'0 0.0
2017-Sep-14 22:00N 51°20' E 001°25'0 0.0
2017-Sep-14 21:30N 51°20' E 001°25'0 0.0
2017-Sep-14 21:00N 51°20' E 001°25'0 0.0
2017-Sep-14 20:30N 51°20' E 001°25'0 0.0
2017-Sep-14 20:00N 51°20' E 001°25'0 0.0
2017-Sep-14 19:30N 51°20' E 001°25'0 0.0
2017-Sep-14 19:00N 51°20' E 001°25'0 0.0
2017-Sep-14 18:30N 51°20' E 001°25'0 0.0
2017-Sep-14 18:00N 51°20' E 001°25'0 0.0
2017-Sep-14 17:30N 51°20' E 001°25'0 0.0
2017-Sep-14 17:00N 51°20' E 001°25'0 0.0
2017-Sep-14 16:30N 51°20' E 001°25'0 0.0
2017-Sep-14 16:00N 51°20' E 001°25'0 0.0
2017-Sep-14 15:30N 51°20' E 001°25'0 0.0
2017-Sep-14 15:00N 51°20' E 001°25'0 0.0
2017-Sep-14 14:30N 51°20' E 001°25'0 0.0
2017-Sep-14 14:00N 51°20' E 001°25'0 0.0
2017-Sep-14 13:30N 51°20' E 001°25'0 0.0
2017-Sep-14 13:00N 51°20' E 001°25'0 0.0
2017-Sep-14 12:30N 51°20' E 001°25'0 0.0
2017-Sep-14 12:00N 51°20' E 001°25'0 0.0
2017-Sep-14 11:30N 51°20' E 001°25'0 0.0
2017-Sep-14 11:00N 51°20' E 001°25'0 0.0
2017-Sep-14 10:30N 51°20' E 001°25'0 0.0
2017-Sep-14 10:00N 51°20' E 001°25'0 0.0
2017-Sep-14 09:30N 51°20' E 001°25'0 0.0
2017-Sep-14 09:00N 51°20' E 001°25'0 0.0
2017-Sep-14 08:30N 51°20' E 001°25'0 0.0
2017-Sep-14 08:00N 51°20' E 001°25'0 0.0
2017-Sep-14 07:30N 51°20' E 001°25'0 0.0
2017-Sep-14 07:00N 51°20' E 001°25'0 0.0
2017-Sep-14 06:30N 51°20' E 001°25'0 0.0
2017-Sep-14 06:00N 51°20' E 001°25'0 0.0
2017-Sep-14 05:30N 51°20' E 001°25'0 0.0
2017-Sep-14 05:00N 51°20' E 001°25'0 0.0
2017-Sep-14 04:30N 51°20' E 001°25'0 0.0
2017-Sep-14 04:00N 51°20' E 001°25'0 0.0
2017-Sep-14 03:30N 51°20' E 001°25'0 0.0
2017-Sep-14 03:00N 51°20' E 001°25'0 0.0
2017-Sep-14 02:30N 51°20' E 001°25'0 0.0
2017-Sep-14 02:00N 51°20' E 001°25'0 0.0
2017-Sep-14 01:30N 51°20' E 001°25'0 0.0
2017-Sep-14 01:00N 51°20' E 001°25'0 0.0
2017-Sep-14 00:30N 51°20' E 001°25'0 0.0
2017-Sep-14 00:00N 51°20' E 001°25'0 0.0
2017-Sep-13 23:30N 51°20' E 001°25'0 0.0
2017-Sep-13 23:00N 51°20' E 001°25'0 0.0
2017-Sep-13 22:30N 51°20' E 001°25'0 0.0
2017-Sep-13 22:00N 51°20' E 001°25'0 0.0
2017-Sep-13 21:30N 51°20' E 001°25'0 0.0
2017-Sep-13 21:00N 51°20' E 001°25'0 0.0
2017-Sep-13 20:30N 51°20' E 001°25'0 0.0
2017-Sep-13 20:00N 51°20' E 001°25'0 0.0
2017-Sep-13 19:30N 51°20' E 001°25'0 0.0
2017-Sep-13 19:00N 51°20' E 001°25'0 0.0
2017-Sep-13 18:30N 51°20' E 001°25'0 0.0
2017-Sep-13 18:00N 51°20' E 001°25'0 0.0
2017-Sep-13 17:30N 51°20' E 001°25'0 0.0
2017-Sep-13 17:00N 51°20' E 001°25'0 0.0
2017-Sep-13 16:30N 51°20' E 001°25'0 0.0
2017-Sep-13 16:00N 51°20' E 001°25'0 0.0
2017-Sep-13 15:30N 51°20' E 001°25'0 0.0
2017-Sep-13 15:00N 51°20' E 001°25'0 0.0
2017-Sep-13 14:30N 51°20' E 001°25'0 0.0
2017-Sep-13 14:00N 51°20' E 001°25'0 0.0
2017-Sep-13 13:30N 51°20' E 001°25'0 0.0
2017-Sep-13 13:00N 51°20' E 001°25'0 0.0
2017-Sep-13 12:30N 51°20' E 001°25'0 0.0
2017-Sep-13 12:00N 51°20' E 001°25'0 0.0
2017-Sep-13 11:30N 51°20' E 001°25'0 0.0
2017-Sep-13 11:00N 51°20' E 001°25'0 0.0
2017-Sep-13 10:30N 51°20' E 001°25'0 0.0
2017-Sep-13 10:00N 51°20' E 001°25'0 0.0
2017-Sep-13 09:30N 51°20' E 001°25'0 0.0
2017-Sep-13 09:00N 51°20' E 001°25'0 0.0
2017-Sep-13 08:30N 51°20' E 001°25'0 0.0
2017-Sep-13 08:00N 51°20' E 001°25'0 0.0
2017-Sep-13 07:30N 51°20' E 001°25'0 0.0
2017-Sep-13 07:00N 51°20' E 001°25'0 0.0
2017-Sep-13 06:30N 51°20' E 001°25'0 0.0
2017-Sep-13 06:00N 51°20' E 001°25'0 0.0
2017-Sep-13 05:30N 51°20' E 001°25'0 0.0
2017-Sep-13 05:00N 51°20' E 001°25'0 0.0
2017-Sep-13 04:30N 51°20' E 001°25'0 0.0
2017-Sep-13 04:00N 51°20' E 001°25'0 0.0
2017-Sep-13 03:30N 51°20' E 001°25'0 0.0
2017-Sep-13 03:00N 51°20' E 001°25'0 0.0
2017-Sep-13 02:30N 51°20' E 001°25'0 0.0
2017-Sep-13 02:00N 51°20' E 001°25'0 0.0
2017-Sep-13 01:30N 51°20' E 001°25'0 0.0
2017-Sep-13 01:00N 51°20' E 001°25'0 0.0
2017-Sep-13 00:30N 51°20' E 001°25'0 0.0
2017-Sep-13 00:00N 51°20' E 001°25'0 0.0
2017-Sep-12 23:30N 51°20' E 001°25'0 0.0
2017-Sep-12 23:00N 51°20' E 001°25'0 0.0
2017-Sep-12 22:30N 51°20' E 001°25'0 0.0
2017-Sep-12 22:00N 51°20' E 001°25'0 0.0
2017-Sep-12 21:30N 51°20' E 001°25'0 0.0
2017-Sep-12 21:00N 51°20' E 001°25'0 0.0
2017-Sep-12 20:30N 51°20' E 001°25'0 0.0
2017-Sep-12 20:00N 51°20' E 001°25'0 0.0
2017-Sep-12 19:30N 51°20' E 001°25'0 0.0
2017-Sep-12 19:00N 51°20' E 001°25'0 0.0
2017-Sep-12 18:30N 51°20' E 001°25'0 0.0
2017-Sep-12 18:00N 51°20' E 001°25'0 0.0
2017-Sep-12 17:30N 51°20' E 001°25'0 0.0
2017-Sep-12 17:00N 51°20' E 001°25'0 0.0
2017-Sep-12 16:30N 51°20' E 001°25'0 0.0
2017-Sep-12 16:00N 51°20' E 001°25'0 0.0
2017-Sep-12 15:30N 51°20' E 001°25'0 0.0
2017-Sep-12 15:00N 51°20' E 001°25'0 0.0
2017-Sep-12 14:30N 51°20' E 001°25'0 0.0
2017-Sep-12 14:00N 51°20' E 001°25'0 0.0
2017-Sep-12 13:30N 51°20' E 001°25'0 0.0
2017-Sep-12 13:00N 51°20' E 001°25'0 0.0
2017-Sep-12 12:30N 51°20' E 001°25'0 0.0
2017-Sep-12 12:00N 51°20' E 001°25'0 0.0
2017-Sep-12 11:30N 51°20' E 001°25'0 0.0
2017-Sep-12 11:00N 51°20' E 001°25'0 0.0
2017-Sep-12 10:30N 51°20' E 001°25'0 0.0
2017-Sep-12 10:00N 51°20' E 001°25'0 0.0
2017-Sep-12 09:30N 51°20' E 001°25'0 0.8
2017-Sep-12 09:00N 51°20' E 001°25'0 0.0
2017-Sep-12 08:30N 51°20' E 001°25'0 0.1
2017-Sep-12 08:01N 51°20' E 001°25'0 0.1
2017-Sep-12 07:30N 51°20' E 001°25'0 0.0
2017-Sep-12 07:00N 51°20' E 001°25'0 0.0
2017-Sep-12 06:30N 51°20' E 001°25'0 0.0
2017-Sep-12 06:00N 51°20' E 001°25'0 0.0
2017-Sep-12 05:30N 51°20' E 001°25'0 0.0
2017-Sep-12 05:00N 51°20' E 001°25'0 0.0
2017-Sep-12 04:30N 51°20' E 001°25'0 0.0
2017-Sep-12 04:00N 51°20' E 001°25'0 0.0
2017-Sep-12 03:30N 51°20' E 001°25'0 0.0
2017-Sep-12 03:00N 51°20' E 001°25'0 0.0
2017-Sep-12 02:30N 51°20' E 001°25'0 0.0
2017-Sep-12 02:00N 51°20' E 001°25'0 0.0
2017-Sep-12 01:30N 51°20' E 001°25'0 0.0
2017-Sep-12 01:00N 51°20' E 001°25'0 0.6
2017-Sep-12 00:30N 51°20' E 001°25'1 2.5
2017-Sep-12 00:00N 51°19' E 001°27'1 2.6
2017-Sep-11 23:30N 51°19' E 001°25'1 1.3
2017-Sep-11 23:00N 51°20' E 001°25'0 0.0
2017-Sep-11 22:30N 51°20' E 001°25'0 0.0
2017-Sep-11 22:00N 51°20' E 001°25'0 0.0
2017-Sep-11 21:30N 51°20' E 001°25'0 0.0
2017-Sep-11 21:00N 51°20' E 001°25'0 0.0
2017-Sep-11 20:30N 51°20' E 001°25'0 0.0
2017-Sep-11 20:00N 51°20' E 001°25'0 0.0
2017-Sep-11 19:30N 51°20' E 001°25'0 0.0
2017-Sep-11 19:00N 51°20' E 001°25'0 0.0
2017-Sep-11 18:30N 51°20' E 001°25'0 0.0
2017-Sep-11 18:00N 51°20' E 001°25'0 0.0
2017-Sep-11 17:30N 51°20' E 001°25'0 0.0
2017-Sep-11 17:00N 51°20' E 001°25'0 0.0
2017-Sep-11 16:30N 51°20' E 001°25'0 0.0
2017-Sep-11 16:00N 51°20' E 001°25'0 0.0
2017-Sep-11 15:30N 51°20' E 001°25'0 0.0
2017-Sep-11 15:00N 51°20' E 001°25'0 0.0
2017-Sep-11 14:30N 51°20' E 001°25'0 0.0
2017-Sep-11 14:00N 51°20' E 001°25'0 0.0
2017-Sep-11 13:30N 51°20' E 001°25'0 0.0
2017-Sep-11 13:00N 51°20' E 001°25'0 0.0
2017-Sep-11 12:30N 51°20' E 001°25'0 0.0
2017-Sep-11 12:00N 51°20' E 001°25'0 0.0
2017-Sep-11 11:30N 51°20' E 001°25'0 0.0
2017-Sep-11 11:00N 51°20' E 001°25'0 0.0
2017-Sep-11 10:30N 51°20' E 001°25'0 0.0
2017-Sep-11 10:00N 51°20' E 001°25'0 0.0
2017-Sep-11 09:30N 51°20' E 001°25'0 0.0
2017-Sep-11 09:00N 51°20' E 001°25'0 0.0
2017-Sep-11 08:31N 51°20' E 001°25'0 0.0
2017-Sep-11 08:00N 51°20' E 001°25'0 0.0
2017-Sep-11 07:30N 51°20' E 001°25'0 0.0
2017-Sep-11 07:00N 51°20' E 001°25'0 0.0
2017-Sep-11 06:30N 51°20' E 001°25'0 0.0
2017-Sep-11 06:00N 51°20' E 001°25'0 0.0
2017-Sep-11 05:30N 51°20' E 001°25'0 0.0
2017-Sep-11 05:00N 51°20' E 001°25'0 0.0
2017-Sep-11 04:30N 51°20' E 001°25'0 0.0
2017-Sep-11 04:00N 51°20' E 001°25'0 0.0
2017-Sep-11 03:30N 51°20' E 001°25'0 0.0
2017-Sep-11 03:00N 51°20' E 001°25'0 0.0
2017-Sep-11 02:30N 51°20' E 001°25'0 0.0
2017-Sep-11 02:00N 51°20' E 001°25'0 0.0
2017-Sep-11 01:31N 51°20' E 001°25'0 0.0
2017-Sep-11 01:00N 51°20' E 001°25'0 0.0
2017-Sep-11 00:30N 51°20' E 001°25'0 0.0
2017-Sep-11 00:00N 51°20' E 001°25'0 0.0
2017-Sep-10 23:30N 51°20' E 001°25'0 0.0
2017-Sep-10 23:00N 51°20' E 001°25'0 0.0
2017-Sep-10 22:30N 51°20' E 001°25'0 0.0
2017-Sep-10 22:00N 51°20' E 001°25'0 0.0
2017-Sep-10 21:30N 51°20' E 001°25'0 0.0
2017-Sep-10 21:00N 51°20' E 001°25'0 0.0
2017-Sep-10 20:30N 51°20' E 001°25'0 0.0
2017-Sep-10 20:00N 51°20' E 001°25'0 0.0
2017-Sep-10 19:30N 51°20' E 001°25'0 0.0
2017-Sep-10 19:00N 51°20' E 001°25'0 0.0
2017-Sep-10 18:30N 51°20' E 001°25'0 0.0
2017-Sep-10 18:00N 51°20' E 001°25'0 0.0
2017-Sep-10 17:30N 51°20' E 001°25'0 0.0
2017-Sep-10 17:00N 51°20' E 001°25'0 0.0
2017-Sep-10 16:30N 51°20' E 001°25'0 0.0
2017-Sep-10 16:00N 51°20' E 001°25'0 0.0
2017-Sep-10 15:30N 51°20' E 001°25'0 0.0
2017-Sep-10 15:00N 51°20' E 001°25'0 0.0
2017-Sep-10 14:00N 51°20' E 001°25'0 0.0
2017-Sep-10 13:30N 51°20' E 001°25'0 0.0
2017-Sep-10 13:00N 51°20' E 001°25'0 0.0
2017-Sep-10 12:30N 51°20' E 001°25'0 0.0
2017-Sep-10 12:00N 51°20' E 001°25'0 0.0
2017-Sep-10 11:30N 51°20' E 001°25'0 0.0
2017-Sep-10 11:00N 51°20' E 001°25'0 0.0
2017-Sep-10 10:30N 51°20' E 001°25'0 0.0
2017-Sep-10 10:00N 51°20' E 001°25'0 0.0
2017-Sep-10 09:30N 51°20' E 001°25'0 0.0
2017-Sep-10 09:00N 51°20' E 001°25'0 0.0
2017-Sep-10 08:31N 51°20' E 001°25'0 0.0
2017-Sep-10 08:00N 51°20' E 001°25'0 0.0
2017-Sep-10 07:30N 51°20' E 001°25'0 0.0
2017-Sep-10 07:00N 51°20' E 001°25'0 0.0
2017-Sep-10 06:31N 51°20' E 001°25'0 0.0
2017-Sep-10 06:00N 51°20' E 001°25'0 0.0
2017-Sep-10 05:30N 51°20' E 001°25'0 0.0
2017-Sep-10 05:00N 51°20' E 001°25'0 0.0
2017-Sep-10 04:30N 51°20' E 001°25'0 0.0
2017-Sep-10 04:00N 51°20' E 001°25'0 0.0
2017-Sep-10 03:30N 51°20' E 001°25'0 0.0
2017-Sep-10 03:00N 51°20' E 001°25'0 0.0
2017-Sep-10 02:30N 51°20' E 001°25'0 0.0
2017-Sep-10 02:00N 51°20' E 001°25'0 0.0
2017-Sep-10 01:30N 51°20' E 001°25'0 0.0
2017-Sep-10 01:01N 51°20' E 001°25'0 0.0
2017-Sep-10 00:30N 51°20' E 001°25'0 0.0
2017-Sep-10 00:00N 51°20' E 001°25'0 0.0
2017-Sep-09 23:30N 51°20' E 001°25'0 0.0
2017-Sep-09 23:00N 51°20' E 001°25'0 0.0
2017-Sep-09 22:30N 51°20' E 001°25'0 0.0
2017-Sep-09 22:00N 51°20' E 001°25'0 0.0
2017-Sep-09 21:31N 51°20' E 001°25'0 0.0
2017-Sep-09 21:00N 51°20' E 001°25'0 0.0
2017-Sep-09 20:30N 51°20' E 001°25'0 0.0
2017-Sep-09 20:00N 51°20' E 001°25'0 0.0
2017-Sep-09 19:30N 51°20' E 001°25'0 0.0
2017-Sep-09 19:00N 51°20' E 001°25'0 0.0
2017-Sep-09 18:30N 51°20' E 001°25'0 0.0
2017-Sep-09 18:00N 51°20' E 001°25'0 0.0
2017-Sep-09 17:30N 51°20' E 001°25'0 0.0
2017-Sep-09 17:00N 51°20' E 001°25'0 0.0
2017-Sep-09 16:30N 51°20' E 001°25'0 0.0
2017-Sep-09 16:00N 51°20' E 001°25'1 1.0
2017-Sep-09 15:30N 51°19' E 001°25'0 0.6
2017-Sep-09 15:00N 51°19' E 001°25'0 0.0
2017-Sep-09 14:30N 51°19' E 001°25'0 0.0
2017-Sep-09 14:00N 51°19' E 001°25'0 0.0
2017-Sep-09 13:30N 51°19' E 001°25'0 0.0
2017-Sep-09 13:00N 51°19' E 001°25'0 0.0
2017-Sep-09 12:30N 51°19' E 001°25'0 0.0
2017-Sep-09 12:00N 51°19' E 001°25'0 0.1
2017-Sep-09 11:30N 51°19' E 001°25'0 0.0
2017-Sep-09 11:00N 51°19' E 001°25'0 0.0
2017-Sep-09 10:31N 51°19' E 001°25'0 0.0
2017-Sep-09 10:00N 51°19' E 001°25'0 0.0
2017-Sep-09 09:30N 51°19' E 001°25'0 0.0
2017-Sep-09 09:01N 51°19' E 001°25'0 0.0
2017-Sep-09 08:31N 51°19' E 001°25'0 0.0
2017-Sep-09 08:00N 51°19' E 001°25'0 0.0
2017-Sep-09 07:30N 51°19' E 001°25'0 0.0
2017-Sep-09 07:00N 51°19' E 001°25'  

Dump ship's entire track history